Terminal Aerodrome Forecast
Issued by NWS Chicago, IL

Home | Current Version | Previous Version | Graphics & Text | Print | Product List | Glossary On
Versions: 1 2 3 4 5 6 7 8 9 10 11 12 13 14 15 16 17 18 19 20 21 22 23 24 25 26 27 28 29 30 31 32
961
FTUS43 KLOT 152010 AAA
TAFRFD
TAF AMD
KRFD 152010Z 1520/1618 30016G26KT P6SM SCT025 BKN040
     FM152300 30017G28KT P6SM BKN018
     FM160700 31013G20KT P6SM SCT010 BKN018
     FM161300 34009KT P6SM SCT008 BKN012
     FM161700 01007KT P6SM SCT020 BKN180=

USA.gov is the U.S. government's official web portal to all federal, state and local government web resources and services.